sensor_id;sensor_type;location;lat;lon;timestamp;P1;durP1;ratioP1;P2;durP2;ratioP2
9986;SDS011;5033;46.310;11.214;2023-02-22T00:01:59;46.10;;;35.75;;
9986;SDS011;5033;46.310;11.214;2023-02-22T00:04:51;40.80;;;32.97;;
9986;SDS011;5033;46.310;11.214;2023-02-22T00:07:20;42.83;;;33.50;;
9986;SDS011;5033;46.310;11.214;2023-02-22T00:09:47;46.95;;;37.03;;
9986;SDS011;5033;46.310;11.214;2023-02-22T00:12:15;44.03;;;35.83;;
9986;SDS011;5033;46.310;11.214;2023-02-22T00:14:42;53.53;;;39.75;;
9986;SDS011;5033;46.310;11.214;2023-02-22T00:17:09;47.35;;;36.78;;
9986;SDS011;5033;46.310;11.214;2023-02-22T00:19:37;48.45;;;36.75;;
9986;SDS011;5033;46.310;11.214;2023-02-22T00:22:04;49.92;;;37.65;;
9986;SDS011;5033;46.310;11.214;2023-02-22T00:24:33;44.55;;;36.05;;
9986;SDS011;5033;46.310;11.214;2023-02-22T00:27:00;43.25;;;33.97;;
9986;SDS011;5033;46.310;11.214;2023-02-22T00:29:29;43.00;;;33.67;;
9986;SDS011;5033;46.310;11.214;2023-02-22T00:31:58;51.95;;;39.03;;
9986;SDS011;5033;46.310;11.214;2023-02-22T00:34:25;50.88;;;38.03;;
9986;SDS011;5033;46.310;11.214;2023-02-22T00:36:52;59.53;;;42.35;;
9986;SDS011;5033;46.310;11.214;2023-02-22T00:39:19;54.40;;;39.20;;
9986;SDS011;5033;46.310;11.214;2023-02-22T00:41:48;52.33;;;38.58;;
9986;SDS011;5033;46.310;11.214;2023-02-22T00:44:16;46.88;;;38.58;;
9986;SDS011;5033;46.310;11.214;2023-02-22T00:46:43;54.75;;;39.83;;
9986;SDS011;5033;46.310;11.214;2023-02-22T00:49:10;46.10;;;36.60;;
9986;SDS011;5033;46.310;11.214;2023-02-22T00:51:38;47.70;;;34.33;;
9986;SDS011;5033;46.310;11.214;2023-02-22T00:54:05;46.50;;;35.40;;
9986;SDS011;5033;46.310;11.214;2023-02-22T00:56:32;47.78;;;36.38;;
9986;SDS011;5033;46.310;11.214;2023-02-22T00:59:05;46.22;;;36.47;;
9986;SDS011;5033;46.310;11.214;2023-02-22T01:01:33;48.67;;;36.63;;
9986;SDS011;5033;46.310;11.214;2023-02-22T01:04:00;45.78;;;35.22;;
9986;SDS011;5033;46.310;11.214;2023-02-22T01:06:27;42.40;;;32.53;;
9986;SDS011;5033;46.310;11.214;2023-02-22T01:08:54;42.88;;;33.83;;
9986;SDS011;5033;46.310;11.214;2023-02-22T01:11:22;44.45;;;33.45;;
9986;SDS011;5033;46.310;11.214;2023-02-22T01:13:49;40.55;;;32.85;;
9986;SDS011;5033;46.310;11.214;2023-02-22T01:16:19;40.20;;;31.90;;
9986;SDS011;5033;46.310;11.214;2023-02-22T01:18:47;38.00;;;31.27;;
9986;SDS011;5033;46.310;11.214;2023-02-22T01:21:14;44.05;;;31.20;;
9986;SDS011;5033;46.310;11.214;2023-02-22T01:23:43;41.28;;;30.77;;
9986;SDS011;5033;46.310;11.214;2023-02-22T01:26:10;39.72;;;30.80;;
9986;SDS011;5033;46.310;11.214;2023-02-22T01:28:37;41.67;;;31.58;;
9986;SDS011;5033;46.310;11.214;2023-02-22T01:31:05;42.70;;;32.38;;
9986;SDS011;5033;46.310;11.214;2023-02-22T01:33:34;39.92;;;29.85;;
9986;SDS011;5033;46.310;11.214;2023-02-22T01:36:02;36.35;;;28.90;;
9986;SDS011;5033;46.310;11.214;2023-02-22T01:38:35;41.53;;;32.75;;
9986;SDS011;5033;46.310;11.214;2023-02-22T01:41:04;38.10;;;30.98;;
9986;SDS011;5033;46.310;11.214;2023-02-22T01:43:32;38.88;;;31.25;;
9986;SDS011;5033;46.310;11.214;2023-02-22T01:46:00;39.25;;;31.58;;
9986;SDS011;5033;46.310;11.214;2023-02-22T01:48:29;40.13;;;30.13;;
9986;SDS011;5033;46.310;11.214;2023-02-22T01:51:05;49.00;;;35.97;;
9986;SDS011;5033;46.310;11.214;2023-02-22T01:53:37;46.22;;;35.50;;
9986;SDS011;5033;46.310;11.214;2023-02-22T01:56:09;49.97;;;36.78;;
9986;SDS011;5033;46.310;11.214;2023-02-22T01:58:37;44.92;;;33.55;;
9986;SDS011;5033;46.310;11.214;2023-02-22T02:01:08;46.33;;;36.15;;
9986;SDS011;5033;46.310;11.214;2023-02-22T02:03:38;40.42;;;32.58;;
9986;SDS011;5033;46.310;11.214;2023-02-22T02:06:07;43.08;;;33.33;;
9986;SDS011;5033;46.310;11.214;2023-02-22T02:08:40;41.08;;;32.60;;
9986;SDS011;5033;46.310;11.214;2023-02-22T02:11:17;54.83;;;36.58;;
9986;SDS011;5033;46.310;11.214;2023-02-22T02:13:48;42.00;;;34.45;;
9986;SDS011;5033;46.310;11.214;2023-02-22T02:16:16;43.58;;;33.92;;
9986;SDS011;5033;46.310;11.214;2023-02-22T02:18:47;42.90;;;32.28;;
9986;SDS011;5033;46.310;11.214;2023-02-22T02:21:24;41.10;;;31.52;;
9986;SDS011;5033;46.310;11.214;2023-02-22T02:24:17;45.60;;;34.80;;
9986;SDS011;5033;46.310;11.214;2023-02-22T02:27:13;46.58;;;36.10;;
9986;SDS011;5033;46.310;11.214;2023-02-22T02:29:49;47.25;;;36.13;;
9986;SDS011;5033;46.310;11.214;2023-02-22T02:38:29;44.22;;;34.50;;
9986;SDS011;5033;46.310;11.214;2023-02-22T02:41:02;43.13;;;33.20;;
9986;SDS011;5033;46.310;11.214;2023-02-22T02:43:36;44.70;;;33.90;;
9986;SDS011;5033;46.310;11.214;2023-02-22T02:46:09;45.85;;;34.63;;
9986;SDS011;5033;46.310;11.214;2023-02-22T02:48:40;40.78;;;30.83;;
9986;SDS011;5033;46.310;11.214;2023-02-22T02:51:10;40.45;;;30.90;;
9986;SDS011;5033;46.310;11.214;2023-02-22T02:53:45;39.47;;;30.42;;
9986;SDS011;5033;46.310;11.214;2023-02-22T02:56:15;37.65;;;29.92;;
9986;SDS011;5033;46.310;11.214;2023-02-22T02:58:45;38.70;;;30.17;;
9986;SDS011;5033;46.310;11.214;2023-02-22T03:01:16;36.85;;;28.65;;
9986;SDS011;5033;46.310;11.214;2023-02-22T03:03:57;34.65;;;28.35;;
9986;SDS011;5033;46.310;11.214;2023-02-22T03:06:41;36.15;;;28.45;;
9986;SDS011;5033;46.310;11.214;2023-02-22T03:09:22;35.78;;;27.77;;
9986;SDS011;5033;46.310;11.214;2023-02-22T03:12:01;43.03;;;33.05;;
9986;SDS011;5033;46.310;11.214;2023-02-22T03:14:40;39.47;;;31.27;;
9986;SDS011;5033;46.310;11.214;2023-02-22T03:17:15;43.17;;;31.70;;
9986;SDS011;5033;46.310;11.214;2023-02-22T03:19:49;43.85;;;33.05;;
9986;SDS011;5033;46.310;11.214;2023-02-22T03:22:19;40.60;;;30.40;;
9986;SDS011;5033;46.310;11.214;2023-02-22T03:24:55;40.88;;;30.55;;
9986;SDS011;5033;46.310;11.214;2023-02-22T03:27:32;40.80;;;30.42;;
9986;SDS011;5033;46.310;11.214;2023-02-22T03:30:06;37.05;;;29.35;;
9986;SDS011;5033;46.310;11.214;2023-02-22T03:32:37;36.03;;;28.00;;
9986;SDS011;5033;46.310;11.214;2023-02-22T03:35:08;34.38;;;28.38;;
9986;SDS011;5033;46.310;11.214;2023-02-22T03:37:39;43.38;;;32.28;;
9986;SDS011;5033;46.310;11.214;2023-02-22T03:40:13;39.85;;;31.58;;
9986;SDS011;5033;46.310;11.214;2023-02-22T03:42:50;37.65;;;30.38;;
9986;SDS011;5033;46.310;11.214;2023-02-22T03:45:20;38.30;;;29.80;;
9986;SDS011;5033;46.310;11.214;2023-02-22T03:47:50;38.67;;;30.48;;
9986;SDS011;5033;46.310;11.214;2023-02-22T03:50:24;35.28;;;27.80;;
9986;SDS011;5033;46.310;11.214;2023-02-22T03:52:54;34.72;;;27.20;;
9986;SDS011;5033;46.310;11.214;2023-02-22T03:55:24;33.50;;;26.42;;
9986;SDS011;5033;46.310;11.214;2023-02-22T03:57:53;29.17;;;24.48;;
9986;SDS011;5033;46.310;11.214;2023-02-22T04:00:24;35.40;;;27.85;;
9986;SDS011;5033;46.310;11.214;2023-02-22T04:02:53;36.65;;;28.00;;
9986;SDS011;5033;46.310;11.214;2023-02-22T04:05:20;33.33;;;25.52;;
9986;SDS011;5033;46.310;11.214;2023-02-22T04:07:49;46.30;;;30.25;;
9986;SDS011;5033;46.310;11.214;2023-02-22T04:10:16;38.67;;;28.60;;
9986;SDS011;5033;46.310;11.214;2023-02-22T04:12:45;35.03;;;26.40;;
9986;SDS011;5033;46.310;11.214;2023-02-22T04:15:13;30.52;;;23.67;;
9986;SDS011;5033;46.310;11.214;2023-02-22T04:17:42;28.05;;;22.92;;
9986;SDS011;5033;46.310;11.214;2023-02-22T04:20:09;27.75;;;21.77;;
9986;SDS011;5033;46.310;11.214;2023-02-22T04:22:37;26.65;;;21.73;;
9986;SDS011;5033;46.310;11.214;2023-02-22T04:25:05;31.13;;;23.42;;
9986;SDS011;5033;46.310;11.214;2023-02-22T04:27:32;33.47;;;26.05;;
9986;SDS011;5033;46.310;11.214;2023-02-22T04:30:00;27.30;;;22.25;;
9986;SDS011;5033;46.310;11.214;2023-02-22T04:32:27;26.25;;;21.85;;
9986;SDS011;5033;46.310;11.214;2023-02-22T04:34:54;27.42;;;21.85;;
9986;SDS011;5033;46.310;11.214;2023-02-22T04:37:21;28.27;;;22.05;;
9986;SDS011;5033;46.310;11.214;2023-02-22T04:39:48;31.65;;;24.05;;
9986;SDS011;5033;46.310;11.214;2023-02-22T04:42:15;29.08;;;22.73;;
9986;SDS011;5033;46.310;11.214;2023-02-22T04:44:42;28.10;;;21.88;;
9986;SDS011;5033;46.310;11.214;2023-02-22T04:47:10;26.90;;;23.08;;
9986;SDS011;5033;46.310;11.214;2023-02-22T04:49:37;29.20;;;22.75;;
9986;SDS011;5033;46.310;11.214;2023-02-22T04:52:04;30.38;;;23.02;;
9986;SDS011;5033;46.310;11.214;2023-02-22T04:54:31;30.08;;;23.20;;
9986;SDS011;5033;46.310;11.214;2023-02-22T04:56:58;30.35;;;23.48;;
9986;SDS011;5033;46.310;11.214;2023-02-22T04:59:25;29.33;;;22.85;;
9986;SDS011;5033;46.310;11.214;2023-02-22T05:01:52;31.05;;;23.30;;
9986;SDS011;5033;46.310;11.214;2023-02-22T05:04:20;29.33;;;21.67;;
9986;SDS011;5033;46.310;11.214;2023-02-22T05:06:47;28.65;;;21.90;;
9986;SDS011;5033;46.310;11.214;2023-02-22T05:09:14;27.55;;;21.73;;
9986;SDS011;5033;46.310;11.214;2023-02-22T05:11:41;25.80;;;20.02;;
9986;SDS011;5033;46.310;11.214;2023-02-22T05:14:08;24.73;;;20.48;;
9986;SDS011;5033;46.310;11.214;2023-02-22T05:16:35;26.23;;;19.58;;
9986;SDS011;5033;46.310;11.214;2023-02-22T05:19:02;26.33;;;20.58;;
9986;SDS011;5033;46.310;11.214;2023-02-22T05:21:31;28.30;;;22.55;;
9986;SDS011;5033;46.310;11.214;2023-02-22T05:23:57;25.83;;;20.30;;
9986;SDS011;5033;46.310;11.214;2023-02-22T05:26:24;26.30;;;21.80;;
9986;SDS011;5033;46.310;11.214;2023-02-22T05:28:51;30.75;;;24.65;;
9986;SDS011;5033;46.310;11.214;2023-02-22T05:31:18;24.40;;;20.15;;
9986;SDS011;5033;46.310;11.214;2023-02-22T05:33:45;25.45;;;20.15;;
9986;SDS011;5033;46.310;11.214;2023-02-22T05:36:12;27.85;;;22.52;;
9986;SDS011;5033;46.310;11.214;2023-02-22T05:38:42;25.63;;;20.02;;
9986;SDS011;5033;46.310;11.214;2023-02-22T05:41:09;24.35;;;20.02;;
9986;SDS011;5033;46.310;11.214;2023-02-22T05:43:37;23.17;;;18.67;;
9986;SDS011;5033;46.310;11.214;2023-02-22T05:46:04;23.40;;;18.00;;
9986;SDS011;5033;46.310;11.214;2023-02-22T05:48:32;21.10;;;18.02;;
9986;SDS011;5033;46.310;11.214;2023-02-22T05:50:59;24.02;;;18.75;;
9986;SDS011;5033;46.310;11.214;2023-02-22T05:53:26;20.63;;;17.70;;
9986;SDS011;5033;46.310;11.214;2023-02-22T05:55:54;24.42;;;19.15;;
9986;SDS011;5033;46.310;11.214;2023-02-22T05:58:21;21.13;;;18.40;;
9986;SDS011;5033;46.310;11.214;2023-02-22T06:00:48;22.25;;;18.30;;
9986;SDS011;5033;46.310;11.214;2023-02-22T06:03:15;26.35;;;20.15;;
9986;SDS011;5033;46.310;11.214;2023-02-22T06:05:42;23.73;;;19.33;;
9986;SDS011;5033;46.310;11.214;2023-02-22T06:08:09;28.42;;;20.55;;
9986;SDS011;5033;46.310;11.214;2023-02-22T06:10:35;23.63;;;19.75;;
9986;SDS011;5033;46.310;11.214;2023-02-22T06:13:04;23.48;;;20.13;;
9986;SDS011;5033;46.310;11.214;2023-02-22T06:15:31;22.50;;;17.98;;
9986;SDS011;5033;46.310;11.214;2023-02-22T06:17:58;22.15;;;18.73;;
9986;SDS011;5033;46.310;11.214;2023-02-22T06:20:26;24.02;;;18.45;;
9986;SDS011;5033;46.310;11.214;2023-02-22T06:22:57;25.23;;;20.23;;
9986;SDS011;5033;46.310;11.214;2023-02-22T06:25:25;24.60;;;19.85;;
9986;SDS011;5033;46.310;11.214;2023-02-22T06:27:55;24.58;;;19.15;;
9986;SDS011;5033;46.310;11.214;2023-02-22T06:30:24;25.02;;;19.50;;
9986;SDS011;5033;46.310;11.214;2023-02-22T06:32:52;24.25;;;20.50;;
9986;SDS011;5033;46.310;11.214;2023-02-22T06:35:19;24.60;;;20.17;;
9986;SDS011;5033;46.310;11.214;2023-02-22T06:37:46;25.77;;;20.73;;
9986;SDS011;5033;46.310;11.214;2023-02-22T06:40:14;22.02;;;18.67;;
9986;SDS011;5033;46.310;11.214;2023-02-22T06:42:41;22.05;;;18.55;;
9986;SDS011;5033;46.310;11.214;2023-02-22T06:45:08;23.35;;;18.60;;
9986;SDS011;5033;46.310;11.214;2023-02-22T06:47:39;18.88;;;16.50;;
9986;SDS011;5033;46.310;11.214;2023-02-22T06:50:07;20.63;;;16.75;;
9986;SDS011;5033;46.310;11.214;2023-02-22T06:52:43;24.73;;;18.65;;
9986;SDS011;5033;46.310;11.214;2023-02-22T06:55:15;22.75;;;18.65;;
9986;SDS011;5033;46.310;11.214;2023-02-22T06:57:42;21.45;;;17.38;;
9986;SDS011;5033;46.310;11.214;2023-02-22T07:00:10;23.75;;;19.58;;
9986;SDS011;5033;46.310;11.214;2023-02-22T07:02:37;21.90;;;18.50;;
9986;SDS011;5033;46.310;11.214;2023-02-22T07:05:06;24.42;;;18.83;;
9986;SDS011;5033;46.310;11.214;2023-02-22T07:07:34;24.55;;;18.92;;
9986;SDS011;5033;46.310;11.214;2023-02-22T07:10:03;23.83;;;18.27;;
9986;SDS011;5033;46.310;11.214;2023-02-22T07:12:30;21.50;;;18.73;;
9986;SDS011;5033;46.310;11.214;2023-02-22T07:14:57;24.40;;;18.45;;
9986;SDS011;5033;46.310;11.214;2023-02-22T07:17:25;21.73;;;18.17;;
9986;SDS011;5033;46.310;11.214;2023-02-22T07:19:53;20.65;;;17.23;;
9986;SDS011;5033;46.310;11.214;2023-02-22T07:22:20;21.27;;;17.63;;
9986;SDS011;5033;46.310;11.214;2023-02-22T07:24:49;22.83;;;18.85;;
9986;SDS011;5033;46.310;11.214;2023-02-22T07:27:16;22.80;;;18.20;;
9986;SDS011;5033;46.310;11.214;2023-02-22T07:29:44;22.42;;;17.33;;
9986;SDS011;5033;46.310;11.214;2023-02-22T07:32:11;22.75;;;18.48;;
9986;SDS011;5033;46.310;11.214;2023-02-22T07:34:39;18.25;;;16.23;;
9986;SDS011;5033;46.310;11.214;2023-02-22T07:37:08;19.67;;;16.60;;
9986;SDS011;5033;46.310;11.214;2023-02-22T07:39:35;21.98;;;18.20;;
9986;SDS011;5033;46.310;11.214;2023-02-22T07:42:02;22.00;;;16.80;;
9986;SDS011;5033;46.310;11.214;2023-02-22T07:44:29;18.75;;;16.33;;
9986;SDS011;5033;46.310;11.214;2023-02-22T07:46:56;21.70;;;16.95;;
9986;SDS011;5033;46.310;11.214;2023-02-22T07:49:23;19.00;;;16.73;;
9986;SDS011;5033;46.310;11.214;2023-02-22T07:51:50;19.50;;;16.05;;
9986;SDS011;5033;46.310;11.214;2023-02-22T07:54:18;19.85;;;16.95;;
9986;SDS011;5033;46.310;11.214;2023-02-22T07:56:46;21.27;;;17.88;;
9986;SDS011;5033;46.310;11.214;2023-02-22T07:59:14;19.45;;;16.67;;
9986;SDS011;5033;46.310;11.214;2023-02-22T08:01:41;23.90;;;19.35;;
9986;SDS011;5033;46.310;11.214;2023-02-22T08:04:08;22.42;;;17.67;;
9986;SDS011;5033;46.310;11.214;2023-02-22T08:06:35;21.98;;;17.88;;
9986;SDS011;5033;46.310;11.214;2023-02-22T08:09:01;22.48;;;17.48;;
9986;SDS011;5033;46.310;11.214;2023-02-22T08:11:30;20.50;;;16.77;;
9986;SDS011;5033;46.310;11.214;2023-02-22T08:13:57;21.48;;;17.27;;
9986;SDS011;5033;46.310;11.214;2023-02-22T08:16:24;24.08;;;16.48;;
9986;SDS011;5033;46.310;11.214;2023-02-22T08:18:51;21.05;;;17.80;;
9986;SDS011;5033;46.310;11.214;2023-02-22T08:21:17;18.63;;;16.52;;
9986;SDS011;5033;46.310;11.214;2023-02-22T08:23:44;18.80;;;15.73;;
9986;SDS011;5033;46.310;11.214;2023-02-22T08:26:16;19.00;;;15.45;;
9986;SDS011;5033;46.310;11.214;2023-02-22T08:28:46;18.95;;;15.50;;
9986;SDS011;5033;46.310;11.214;2023-02-22T08:31:13;21.33;;;16.15;;
9986;SDS011;5033;46.310;11.214;2023-02-22T08:33:41;21.48;;;17.67;;
9986;SDS011;5033;46.310;11.214;2023-02-22T08:36:08;22.50;;;18.00;;
9986;SDS011;5033;46.310;11.214;2023-02-22T08:38:35;23.15;;;16.50;;
9986;SDS011;5033;46.310;11.214;2023-02-22T08:41:02;19.08;;;15.60;;
9986;SDS011;5033;46.310;11.214;2023-02-22T08:43:31;20.98;;;17.05;;
9986;SDS011;5033;46.310;11.214;2023-02-22T08:46:00;20.63;;;16.15;;
9986;SDS011;5033;46.310;11.214;2023-02-22T08:48:27;22.48;;;17.15;;
9986;SDS011;5033;46.310;11.214;2023-02-22T08:50:54;20.35;;;17.58;;
9986;SDS011;5033;46.310;11.214;2023-02-22T08:53:21;22.55;;;17.88;;
9986;SDS011;5033;46.310;11.214;2023-02-22T08:55:48;20.95;;;16.75;;
9986;SDS011;5033;46.310;11.214;2023-02-22T08:58:15;21.77;;;17.65;;
9986;SDS011;5033;46.310;11.214;2023-02-22T09:00:42;22.55;;;18.92;;
9986;SDS011;5033;46.310;11.214;2023-02-22T09:03:11;27.48;;;18.98;;
9986;SDS011;5033;46.310;11.214;2023-02-22T09:05:39;22.67;;;18.60;;
9986;SDS011;5033;46.310;11.214;2023-02-22T09:08:07;21.08;;;17.15;;
9986;SDS011;5033;46.310;11.214;2023-02-22T09:10:34;23.52;;;18.58;;
9986;SDS011;5033;46.310;11.214;2023-02-22T09:13:02;20.55;;;16.52;;
9986;SDS011;5033;46.310;11.214;2023-02-22T09:15:29;22.02;;;16.95;;
9986;SDS011;5033;46.310;11.214;2023-02-22T09:17:58;24.95;;;18.23;;
9986;SDS011;5033;46.310;11.214;2023-02-22T09:20:27;20.17;;;16.98;;
9986;SDS011;5033;46.310;11.214;2023-02-22T09:22:54;23.77;;;18.27;;
9986;SDS011;5033;46.310;11.214;2023-02-22T09:25:21;25.65;;;18.90;;
9986;SDS011;5033;46.310;11.214;2023-02-22T09:27:49;21.17;;;18.42;;
9986;SDS011;5033;46.310;11.214;2023-02-22T09:30:21;24.25;;;18.30;;
9986;SDS011;5033;46.310;11.214;2023-02-22T09:32:50;23.70;;;18.17;;
9986;SDS011;5033;46.310;11.214;2023-02-22T09:35:18;21.88;;;18.20;;
9986;SDS011;5033;46.310;11.214;2023-02-22T09:37:52;23.92;;;18.48;;
9986;SDS011;5033;46.310;11.214;2023-02-22T09:40:20;22.38;;;17.38;;
9986;SDS011;5033;46.310;11.214;2023-02-22T09:43:05;23.08;;;18.27;;
9986;SDS011;5033;46.310;11.214;2023-02-22T09:45:42;25.50;;;19.08;;
9986;SDS011;5033;46.310;11.214;2023-02-22T09:48:26;22.95;;;18.60;;
9986;SDS011;5033;46.310;11.214;2023-02-22T09:50:56;23.70;;;19.20;;
9986;SDS011;5033;46.310;11.214;2023-02-22T09:53:29;25.25;;;17.67;;
9986;SDS011;5033;46.310;11.214;2023-02-22T09:56:00;22.10;;;18.05;;
9986;SDS011;5033;46.310;11.214;2023-02-22T09:58:31;22.48;;;18.25;;
9986;SDS011;5033;46.310;11.214;2023-02-22T10:01:06;21.15;;;17.75;;
9986;SDS011;5033;46.310;11.214;2023-02-22T10:03:47;22.30;;;18.58;;
9986;SDS011;5033;46.310;11.214;2023-02-22T10:06:19;23.70;;;18.25;;
9986;SDS011;5033;46.310;11.214;2023-02-22T10:08:50;21.55;;;17.73;;
9986;SDS011;5033;46.310;11.214;2023-02-22T10:11:23;21.38;;;18.20;;
9986;SDS011;5033;46.310;11.214;2023-02-22T10:14:02;22.33;;;18.23;;
9986;SDS011;5033;46.310;11.214;2023-02-22T10:16:42;21.48;;;17.27;;
9986;SDS011;5033;46.310;11.214;2023-02-22T10:19:20;21.05;;;18.00;;
9986;SDS011;5033;46.310;11.214;2023-02-22T10:21:59;24.42;;;19.23;;
9986;SDS011;5033;46.310;11.214;2023-02-22T10:24:45;23.17;;;18.42;;
9986;SDS011;5033;46.310;11.214;2023-02-22T10:27:20;24.63;;;19.73;;
9986;SDS011;5033;46.310;11.214;2023-02-22T10:29:53;23.95;;;19.40;;
9986;SDS011;5033;46.310;11.214;2023-02-22T10:32:26;25.35;;;20.73;;
9986;SDS011;5033;46.310;11.214;2023-02-22T10:34:59;24.52;;;20.35;;
9986;SDS011;5033;46.310;11.214;2023-02-22T10:37:30;26.30;;;20.25;;
9986;SDS011;5033;46.310;11.214;2023-02-22T10:40:00;25.98;;;20.67;;
9986;SDS011;5033;46.310;11.214;2023-02-22T10:42:37;33.17;;;22.80;;
9986;SDS011;5033;46.310;11.214;2023-02-22T10:45:20;32.38;;;24.48;;
9986;SDS011;5033;46.310;11.214;2023-02-22T10:47:50;30.25;;;23.88;;
9986;SDS011;5033;46.310;11.214;2023-02-22T10:50:25;28.77;;;22.50;;
9986;SDS011;5033;46.310;11.214;2023-02-22T10:53:07;29.52;;;23.00;;
9986;SDS011;5033;46.310;11.214;2023-02-22T10:55:36;34.58;;;26.00;;
9986;SDS011;5033;46.310;11.214;2023-02-22T10:58:39;33.00;;;27.00;;
9986;SDS011;5033;46.310;11.214;2023-02-22T11:04:03;35.85;;;27.02;;
9986;SDS011;5033;46.310;11.214;2023-02-22T11:06:35;35.85;;;27.77;;
9986;SDS011;5033;46.310;11.214;2023-02-22T11:09:03;37.22;;;27.92;;
9986;SDS011;5033;46.310;11.214;2023-02-22T11:11:36;36.92;;;27.85;;
9986;SDS011;5033;46.310;11.214;2023-02-22T11:14:05;38.17;;;29.58;;
9986;SDS011;5033;46.310;11.214;2023-02-22T11:16:35;39.60;;;28.75;;
9986;SDS011;5033;46.310;11.214;2023-02-22T11:19:07;37.15;;;27.10;;
9986;SDS011;5033;46.310;11.214;2023-02-22T11:21:44;38.17;;;26.33;;
9986;SDS011;5033;46.310;11.214;2023-02-22T11:24:15;38.90;;;30.23;;
9986;SDS011;5033;46.310;11.214;2023-02-22T11:26:46;32.28;;;25.60;;
9986;SDS011;5033;46.310;11.214;2023-02-22T11:29:17;33.08;;;25.25;;
9986;SDS011;5033;46.310;11.214;2023-02-22T11:31:47;31.17;;;25.50;;
9986;SDS011;5033;46.310;11.214;2023-02-22T11:34:25;33.67;;;27.08;;
9986;SDS011;5033;46.310;11.214;2023-02-22T11:36:59;38.20;;;29.65;;
9986;SDS011;5033;46.310;11.214;2023-02-22T11:39:42;34.38;;;28.10;;
9986;SDS011;5033;46.310;11.214;2023-02-22T11:42:23;41.70;;;32.45;;
9986;SDS011;5033;46.310;11.214;2023-02-22T11:45:06;34.47;;;27.15;;
9986;SDS011;5033;46.310;11.214;2023-02-22T11:47:35;33.20;;;26.33;;
9986;SDS011;5033;46.310;11.214;2023-02-22T11:50:20;35.25;;;27.70;;
9986;SDS011;5033;46.310;11.214;2023-02-22T11:52:54;33.33;;;27.45;;
9986;SDS011;5033;46.310;11.214;2023-02-22T11:55:34;38.90;;;29.33;;
9986;SDS011;5033;46.310;11.214;2023-02-22T11:58:17;33.75;;;27.45;;
9986;SDS011;5033;46.310;11.214;2023-02-22T12:00:52;34.53;;;26.67;;
9986;SDS011;5033;46.310;11.214;2023-02-22T12:06:34;33.65;;;27.33;;
9986;SDS011;5033;46.310;11.214;2023-02-22T12:09:11;36.50;;;29.98;;
9986;SDS011;5033;46.310;11.214;2023-02-22T12:11:48;34.75;;;28.60;;
9986;SDS011;5033;46.310;11.214;2023-02-22T12:14:27;34.38;;;28.55;;
9986;SDS011;5033;46.310;11.214;2023-02-22T12:17:15;33.75;;;26.42;;
9986;SDS011;5033;46.310;11.214;2023-02-22T12:19:48;36.60;;;28.15;;
9986;SDS011;5033;46.310;11.214;2023-02-22T12:22:18;38.05;;;30.17;;
9986;SDS011;5033;46.310;11.214;2023-02-22T12:24:51;36.60;;;28.48;;
9986;SDS011;5033;46.310;11.214;2023-02-22T12:27:24;33.00;;;26.88;;
9986;SDS011;5033;46.310;11.214;2023-02-22T12:29:58;36.13;;;29.15;;
9986;SDS011;5033;46.310;11.214;2023-02-22T12:32:31;34.72;;;28.10;;
9986;SDS011;5033;46.310;11.214;2023-02-22T12:35:03;35.58;;;28.88;;
9986;SDS011;5033;46.310;11.214;2023-02-22T12:37:40;32.05;;;25.10;;
9986;SDS011;5033;46.310;11.214;2023-02-22T12:42:49;33.58;;;26.50;;
9986;SDS011;5033;46.310;11.214;2023-02-22T12:45:27;33.45;;;27.10;;
9986;SDS011;5033;46.310;11.214;2023-02-22T12:48:01;38.35;;;29.00;;
9986;SDS011;5033;46.310;11.214;2023-02-22T12:50:51;37.78;;;28.33;;
9986;SDS011;5033;46.310;11.214;2023-02-22T12:53:23;34.33;;;27.27;;
9986;SDS011;5033;46.310;11.214;2023-02-22T12:55:54;35.83;;;29.08;;
9986;SDS011;5033;46.310;11.214;2023-02-22T12:58:26;34.45;;;28.20;;
9986;SDS011;5033;46.310;11.214;2023-02-22T13:01:00;33.90;;;28.83;;
9986;SDS011;5033;46.310;11.214;2023-02-22T13:03:33;36.85;;;28.30;;
9986;SDS011;5033;46.310;11.214;2023-02-22T13:06:10;33.15;;;27.20;;
9986;SDS011;5033;46.310;11.214;2023-02-22T13:08:47;32.35;;;25.92;;
9986;SDS011;5033;46.310;11.214;2023-02-22T13:11:25;35.33;;;26.85;;
9986;SDS011;5033;46.310;11.214;2023-02-22T13:14:02;34.42;;;26.95;;
9986;SDS011;5033;46.310;11.214;2023-02-22T13:16:42;32.83;;;25.90;;
9986;SDS011;5033;46.310;11.214;2023-02-22T13:19:20;34.10;;;26.60;;
9986;SDS011;5033;46.310;11.214;2023-02-22T13:22:00;34.67;;;27.92;;
9986;SDS011;5033;46.310;11.214;2023-02-22T13:24:31;32.50;;;26.75;;
9986;SDS011;5033;46.310;11.214;2023-02-22T13:27:07;32.47;;;25.70;;
9986;SDS011;5033;46.310;11.214;2023-02-22T13:29:39;36.05;;;28.15;;
9986;SDS011;5033;46.310;11.214;2023-02-22T13:32:17;35.78;;;29.17;;
9986;SDS011;5033;46.310;11.214;2023-02-22T13:34:58;33.83;;;27.83;;
9986;SDS011;5033;46.310;11.214;2023-02-22T13:37:45;32.78;;;27.27;;
9986;SDS011;5033;46.310;11.214;2023-02-22T13:40:36;42.55;;;33.40;;
9986;SDS011;5033;46.310;11.214;2023-02-22T13:46:17;47.70;;;34.90;;
9986;SDS011;5033;46.310;11.214;2023-02-22T13:49:27;36.70;;;28.85;;
9986;SDS011;5033;46.310;11.214;2023-02-22T13:52:19;38.20;;;30.40;;
9986;SDS011;5033;46.310;11.214;2023-02-22T13:54:49;36.10;;;30.48;;
9986;SDS011;5033;46.310;11.214;2023-02-22T13:57:20;35.85;;;28.20;;
9986;SDS011;5033;46.310;11.214;2023-02-22T14:02:57;34.50;;;27.60;;
9986;SDS011;5033;46.310;11.214;2023-02-22T14:05:46;37.60;;;29.42;;
9986;SDS011;5033;46.310;11.214;2023-02-22T14:11:04;35.42;;;28.73;;
9986;SDS011;5033;46.310;11.214;2023-02-22T14:16:41;30.88;;;25.15;;
9986;SDS011;5033;46.310;11.214;2023-02-22T14:19:13;39.95;;;30.40;;
9986;SDS011;5033;46.310;11.214;2023-02-22T14:21:56;35.80;;;29.05;;
9986;SDS011;5033;46.310;11.214;2023-02-22T14:24:26;47.42;;;31.90;;
9986;SDS011;5033;46.310;11.214;2023-02-22T14:26:55;35.80;;;28.35;;
9986;SDS011;5033;46.310;11.214;2023-02-22T14:29:25;32.13;;;25.90;;
9986;SDS011;5033;46.310;11.214;2023-02-22T14:31:55;30.50;;;24.45;;
9986;SDS011;5033;46.310;11.214;2023-02-22T14:34:37;34.55;;;27.05;;
9986;SDS011;5033;46.310;11.214;2023-02-22T14:37:15;26.52;;;22.65;;
9986;SDS011;5033;46.310;11.214;2023-02-22T14:39:45;32.28;;;25.52;;
9986;SDS011;5033;46.310;11.214;2023-02-22T14:42:15;34.38;;;27.77;;
9986;SDS011;5033;46.310;11.214;2023-02-22T14:44:47;30.15;;;24.27;;
9986;SDS011;5033;46.310;11.214;2023-02-22T14:47:21;31.75;;;25.00;;
9986;SDS011;5033;46.310;11.214;2023-02-22T14:49:54;30.63;;;23.55;;
9986;SDS011;5033;46.310;11.214;2023-02-22T14:52:30;30.35;;;23.90;;
9986;SDS011;5033;46.310;11.214;2023-02-22T14:55:10;38.88;;;30.40;;
9986;SDS011;5033;46.310;11.214;2023-02-22T14:57:45;31.45;;;25.27;;
9986;SDS011;5033;46.310;11.214;2023-02-22T15:00:19;33.00;;;26.45;;
9986;SDS011;5033;46.310;11.214;2023-02-22T15:02:55;39.67;;;31.55;;
9986;SDS011;5033;46.310;11.214;2023-02-22T15:05:26;38.15;;;29.33;;
9986;SDS011;5033;46.310;11.214;2023-02-22T15:07:57;43.97;;;32.97;;
9986;SDS011;5033;46.310;11.214;2023-02-22T15:10:27;33.55;;;27.02;;
9986;SDS011;5033;46.310;11.214;2023-02-22T15:12:57;36.67;;;27.20;;
9986;SDS011;5033;46.310;11.214;2023-02-22T15:15:36;40.42;;;30.20;;
9986;SDS011;5033;46.310;11.214;2023-02-22T15:18:11;41.85;;;32.85;;
9986;SDS011;5033;46.310;11.214;2023-02-22T15:20:54;40.63;;;31.23;;
9986;SDS011;5033;46.310;11.214;2023-02-22T15:23:27;46.45;;;35.97;;
9986;SDS011;5033;46.310;11.214;2023-02-22T15:26:04;42.15;;;32.60;;